createdAt,value
2019-03-24T00:00:05.009Z,966.73
2019-03-24T00:15:09.372Z,966.57
2019-03-24T00:30:04.890Z,966.86
2019-03-24T00:45:04.729Z,966.95
2019-03-24T01:00:04.898Z,967.08
2019-03-24T01:15:04.809Z,966.86
2019-03-24T01:30:04.360Z,967.16
2019-03-24T01:45:04.617Z,967.16
2019-03-24T02:00:04.371Z,967.16
2019-03-24T02:15:04.747Z,967.22
2019-03-24T02:30:04.748Z,967.49
2019-03-24T02:45:04.520Z,967.7
2019-03-24T03:00:04.911Z,967.7
2019-03-24T03:15:04.515Z,967.78
2019-03-24T03:30:10.147Z,967.94
2019-03-24T03:45:05.353Z,968.4
2019-03-24T04:00:05.203Z,968.51
2019-03-24T04:15:04.974Z,968.59
2019-03-24T04:30:04.541Z,969
2019-03-24T04:45:04.340Z,969.08
2019-03-24T05:00:04.552Z,969.46
2019-03-24T05:15:04.282Z,969.62
2019-03-24T05:30:04.531Z,969.59
2019-03-24T05:45:04.280Z,969.62
2019-03-24T06:00:04.230Z,969.51
2019-03-24T06:15:05.033Z,969.24
2019-03-24T06:30:04.542Z,969.05
2019-03-24T06:45:04.282Z,968.92
2019-03-24T07:00:04.592Z,967.67
2019-03-24T07:15:04.336Z,966.68
2019-03-24T07:30:04.924Z,972.66
2019-03-24T07:45:05.140Z,971.27
2019-03-24T08:00:04.909Z,969.53
2019-03-24T08:15:04.670Z,967.68
2019-03-24T08:30:04.744Z,973.04
2019-03-24T08:45:04.970Z,969.28
2019-03-24T09:00:04.753Z,971.65
2019-03-24T09:15:04.538Z,971.87
2019-03-24T09:30:04.540Z,967.5
2019-03-24T09:45:04.273Z,968.26
2019-03-24T10:00:04.599Z,971.58
2019-03-24T10:15:04.866Z,965.5
2019-03-24T10:30:04.323Z,966.26
2019-03-24T10:45:04.568Z,966.48
2019-03-24T11:00:04.877Z,965.83
2019-03-24T11:15:04.214Z,965.28
2019-03-24T11:30:04.770Z,965.36
2019-03-24T11:45:04.531Z,964.71
2019-03-24T12:00:09.342Z,964.71
2019-03-24T12:15:05.776Z,964.41
2019-03-24T12:30:04.345Z,963.95
2019-03-24T12:45:04.682Z,963.87
2019-03-24T13:00:04.369Z,963.49
2019-03-24T13:15:04.653Z,970.73
2019-03-24T13:30:12.155Z,970.49
2019-03-24T13:45:04.508Z,970.07
2019-03-24T14:00:04.802Z,969.85
2019-03-24T14:15:05.181Z,969.58
2019-03-24T14:30:04.748Z,969.44
2019-03-24T14:45:04.504Z,969.31
2019-03-24T15:00:04.818Z,969.17
2019-03-24T15:15:07.648Z,969.14
2019-03-24T15:30:05.129Z,969.06
2019-03-24T15:45:04.532Z,969.09
2019-03-24T16:00:04.348Z,969.17
2019-03-24T16:15:04.595Z,969.33
2019-03-24T16:30:05.053Z,969.42
2019-03-24T16:45:04.379Z,969.74
2019-03-24T17:00:04.678Z,969.96
2019-03-24T17:15:04.996Z,970.13
2019-03-24T17:30:04.500Z,963.08
2019-03-24T17:45:04.804Z,963.46
2019-03-24T18:00:05.111Z,963.92
2019-03-24T18:15:04.449Z,964.38
2019-03-24T18:30:04.515Z,964.9
2019-03-24T18:45:04.247Z,965.25
2019-03-24T19:00:04.513Z,965.12
2019-03-24T19:15:04.865Z,964.85
2019-03-24T19:30:04.262Z,964.87
2019-03-24T19:45:04.579Z,965.53
2019-03-24T20:00:05.015Z,965.99
2019-03-24T20:15:04.768Z,965.91
2019-03-24T20:30:05.338Z,965.96
2019-03-24T20:45:04.664Z,966.32
2019-03-24T21:00:04.449Z,966.45
2019-03-24T21:15:04.334Z,966.4
2019-03-24T21:30:10.626Z,966.48
2019-03-24T21:45:04.397Z,966.67
2019-03-24T22:00:05.723Z,967.3
2019-03-24T22:15:04.986Z,967.3
2019-03-24T22:30:10.030Z,967.43
2019-03-24T22:45:04.370Z,967.4
2019-03-24T23:00:20.046Z,967.62
2019-03-24T23:15:04.785Z,967.79
2019-03-24T23:30:04.223Z,967.79
2019-03-24T23:45:04.476Z,968
